createdAt,value
2022-10-05T00:02:22.400Z,71.42
2022-10-05T00:04:53.834Z,71.66
2022-10-05T00:07:23.151Z,71.24
2022-10-05T00:09:58.356Z,71.66
2022-10-05T00:12:27.581Z,70.60
2022-10-05T00:14:59.554Z,70.79
2022-10-05T00:17:29.377Z,70.94
2022-10-05T00:19:56.706Z,71.37
2022-10-05T00:22:29.868Z,71.17
2022-10-05T00:25:00.888Z,71.59
2022-10-05T00:27:37.853Z,70.87
2022-10-05T00:30:12.237Z,70.59
2022-10-05T00:32:39.075Z,70.07
2022-10-05T00:35:06.568Z,70.07
2022-10-05T00:37:33.751Z,70.32
2022-10-05T00:40:01.110Z,70.14
2022-10-05T00:42:40.911Z,70.50
2022-10-05T00:45:20.723Z,70.24
2022-10-05T00:48:00.104Z,70.04
2022-10-05T00:50:45.197Z,70.08
2022-10-05T00:53:28.758Z,70.02
2022-10-05T00:56:15.747Z,69.77
2022-10-05T00:58:42.541Z,70.17
2022-10-05T01:01:11.737Z,70.07
2022-10-05T01:04:17.371Z,69.91
2022-10-05T01:07:03.562Z,69.75
2022-10-05T01:10:05.065Z,69.66
2022-10-05T01:12:53.538Z,69.30
2022-10-05T01:15:41.799Z,68.96
2022-10-05T01:18:23.843Z,69.18
2022-10-05T01:21:47.668Z,69.25
2022-10-05T01:24:48.372Z,69.72
2022-10-05T01:27:15.247Z,69.42
2022-10-05T01:29:44.917Z,69.59
2022-10-05T01:32:22.696Z,68.99
2022-10-05T01:35:03.274Z,69.24
2022-10-05T01:38:00.082Z,69.00
2022-10-05T01:40:45.587Z,69.09
2022-10-05T01:43:38.827Z,69.50
2022-10-05T01:46:22.706Z,69.21
2022-10-05T01:49:01.663Z,69.27
2022-10-05T01:51:51.447Z,69.47
2022-10-05T01:54:52.720Z,69.75
2022-10-05T01:57:22.470Z,69.25
2022-10-05T02:00:06.015Z,69.25
2022-10-05T02:03:06.745Z,69.18
2022-10-05T02:05:41.122Z,69.24
2022-10-05T02:08:18.268Z,68.92
2022-10-05T02:10:56.183Z,68.57
2022-10-05T02:13:33.010Z,68.71
2022-10-05T02:16:31.979Z,68.69
2022-10-05T02:19:17.295Z,69.07
2022-10-05T02:21:48.725Z,68.62
2022-10-05T02:24:26.918Z,68.40
2022-10-05T02:26:56.613Z,68.39
2022-10-05T02:29:29.154Z,67.86
2022-10-05T02:32:02.928Z,68.15
2022-10-05T02:34:41.185Z,67.75
2022-10-05T02:38:00.709Z,66.65
2022-10-05T02:41:07.128Z,67.66
2022-10-05T02:43:52.557Z,66.88
2022-10-05T02:46:33.646Z,66.94
2022-10-05T02:49:30.060Z,66.49
2022-10-05T02:52:03.269Z,66.63
2022-10-05T02:54:50.726Z,67.63
2022-10-05T02:57:32.835Z,67.45
2022-10-05T03:00:05.684Z,68.50
2022-10-05T03:02:47.192Z,68.99
2022-10-05T03:05:22.764Z,68.56
2022-10-05T03:08:02.882Z,68.89
2022-10-05T03:10:43.688Z,68.62
2022-10-05T03:13:23.679Z,68.90
2022-10-05T03:16:22.283Z,68.96
2022-10-05T03:19:03.685Z,68.71
2022-10-05T03:22:05.092Z,68.76
2022-10-05T03:24:44.562Z,69.00
2022-10-05T03:27:29.025Z,69.12
2022-10-05T03:30:08.488Z,69.43
2022-10-05T03:32:47.941Z,69.73
2022-10-05T03:35:29.811Z,70.52
2022-10-05T03:38:10.448Z,70.43
2022-10-05T03:40:50.228Z,69.45
2022-10-05T03:43:29.414Z,69.86
2022-10-05T03:46:08.310Z,69.67
2022-10-05T03:49:07.132Z,69.71
2022-10-05T03:51:49.418Z,69.15
2022-10-05T03:54:29.487Z,69.75
2022-10-05T03:57:06.478Z,69.01
2022-10-05T04:00:03.382Z,69.51
2022-10-05T04:02:50.485Z,68.59
2022-10-05T04:05:23.205Z,68.33
2022-10-05T04:08:20.639Z,68.73
2022-10-05T04:10:57.908Z,68.48
2022-10-05T04:13:49.078Z,68.44
2022-10-05T04:16:28.423Z,68.44
2022-10-05T04:19:02.526Z,69.27
2022-10-05T04:21:45.747Z,68.57
2022-10-05T04:24:20.894Z,68.71
2022-10-05T04:27:01.524Z,68.71
2022-10-05T04:30:02.699Z,68.53
2022-10-05T04:32:44.248Z,68.09
2022-10-05T04:35:17.741Z,67.92
2022-10-05T04:38:06.470Z,67.83
2022-10-05T04:41:01.164Z,67.86
2022-10-05T04:43:49.702Z,67.55
2022-10-05T04:46:27.712Z,67.26
2022-10-05T04:49:14.124Z,67.05
2022-10-05T04:51:53.560Z,67.53
2022-10-05T04:55:06.995Z,67.29
2022-10-05T04:57:33.793Z,67.08
2022-10-05T05:00:22.832Z,67.35
2022-10-05T05:03:20.150Z,67.03
2022-10-05T05:06:17.262Z,66.92
2022-10-05T05:09:31.329Z,66.63
2022-10-05T05:12:24.089Z,66.27
2022-10-05T05:15:22.833Z,65.38
2022-10-05T05:17:57.085Z,65.52
2022-10-05T05:20:53.825Z,65.35
2022-10-05T05:23:39.050Z,65.20
2022-10-05T05:26:17.220Z,65.03
2022-10-05T05:29:09.779Z,64.29
2022-10-05T05:32:06.373Z,64.23
2022-10-05T05:34:39.575Z,63.42
2022-10-05T05:37:18.568Z,63.36
2022-10-05T05:40:13.365Z,63.13
2022-10-05T05:43:16.128Z,62.53
2022-10-05T05:46:01.832Z,62.49
2022-10-05T05:48:40.133Z,62.50
2022-10-05T05:51:18.057Z,61.14
2022-10-05T05:53:50.773Z,60.22
2022-10-05T05:56:27.483Z,60.65
2022-10-05T05:59:00.704Z,61.54
2022-10-05T06:01:51.306Z,61.21
2022-10-05T06:04:40.207Z,60.83
2022-10-05T06:07:16.641Z,61.23
2022-10-05T06:10:14.457Z,60.87
2022-10-05T06:12:52.295Z,59.81
2022-10-05T06:15:41.289Z,59.66
2022-10-05T06:18:14.178Z,59.99
2022-10-05T06:21:06.824Z,59.54
2022-10-05T06:24:01.954Z,59.10
2022-10-05T06:26:50.609Z,59.24
2022-10-05T06:29:23.127Z,58.69
2022-10-05T06:32:09.899Z,59.02
2022-10-05T06:34:56.197Z,58.56
2022-10-05T06:37:51.507Z,59.19
2022-10-05T06:40:43.143Z,60.00
2022-10-05T06:43:26.150Z,59.42
2022-10-05T06:46:25.558Z,59.99
2022-10-05T06:49:51.095Z,59.99
2022-10-05T06:53:21.379Z,59.88
2022-10-05T06:56:04.597Z,59.70
2022-10-05T06:58:45.880Z,58.53
2022-10-05T07:01:44.349Z,57.61
2022-10-05T07:04:14.388Z,58.05
2022-10-05T07:06:59.084Z,58.59
2022-10-05T07:09:51.076Z,58.61
2022-10-05T07:12:43.860Z,59.41
2022-10-05T07:15:37.053Z,59.57
2022-10-05T07:18:22.360Z,59.38
2022-10-05T07:21:04.957Z,58.88
2022-10-05T07:23:53.148Z,58.78
2022-10-05T07:26:39.131Z,58.72
2022-10-05T07:29:57.171Z,58.72
2022-10-05T07:32:29.946Z,58.94
2022-10-05T07:35:29.919Z,58.69
2022-10-05T07:38:03.997Z,57.71
2022-10-05T07:40:39.300Z,57.75
2022-10-05T07:44:04.341Z,57.08
2022-10-05T07:46:49.898Z,57.23
2022-10-05T07:49:54.461Z,56.55
2022-10-05T07:52:39.936Z,56.33
2022-10-05T07:55:37.662Z,56.16
2022-10-05T07:58:16.588Z,55.46
2022-10-05T08:01:15.905Z,54.90
2022-10-05T08:03:52.950Z,54.83
2022-10-05T08:06:46.853Z,55.04
2022-10-05T08:09:23.103Z,54.82
2022-10-05T08:12:14.189Z,55.71
2022-10-05T08:14:57.790Z,55.09
2022-10-05T08:17:38.068Z,53.43
2022-10-05T08:20:19.981Z,54.06
2022-10-05T08:22:53.907Z,54.52
2022-10-05T08:25:33.179Z,54.73
2022-10-05T08:28:11.538Z,53.60
2022-10-05T08:30:51.980Z,51.72
2022-10-05T08:33:21.266Z,52.80
2022-10-05T08:36:12.006Z,52.65
2022-10-05T08:38:40.155Z,54.07
2022-10-05T08:41:30.785Z,54.47
2022-10-05T08:44:34.836Z,55.61
2022-10-05T08:47:07.380Z,55.81
2022-10-05T08:49:49.532Z,55.97
2022-10-05T08:52:29.129Z,55.63
2022-10-05T08:55:27.085Z,55.09
2022-10-05T08:58:05.876Z,55.45
2022-10-05T09:00:35.685Z,55.05
2022-10-05T09:03:34.353Z,55.50
2022-10-05T09:06:24.273Z,55.13
2022-10-05T09:09:00.309Z,54.97
2022-10-05T09:11:37.869Z,54.69
2022-10-05T09:14:19.854Z,54.20
2022-10-05T09:17:05.344Z,54.42
2022-10-05T09:19:58.553Z,53.61
2022-10-05T09:22:40.361Z,53.57
2022-10-05T09:25:15.906Z,53.31
2022-10-05T09:28:17.965Z,53.84
2022-10-05T09:31:31.475Z,53.98
2022-10-05T09:34:04.502Z,53.42
2022-10-05T09:36:56.022Z,53.48
2022-10-05T09:39:52.694Z,53.76
2022-10-05T09:42:40.714Z,53.23
2022-10-05T09:45:21.440Z,52.94
2022-10-05T09:48:07.090Z,52.43
2022-10-05T09:50:40.143Z,52.85
2022-10-05T09:53:54.075Z,53.16
2022-10-05T09:56:20.951Z,53.20
2022-10-05T09:59:04.667Z,52.91
2022-10-05T10:01:40.645Z,53.56
2022-10-05T10:04:35.630Z,53.67
2022-10-05T10:07:25.769Z,53.89
2022-10-05T10:10:25.485Z,54.16
2022-10-05T10:13:25.815Z,54.01
2022-10-05T10:16:11.682Z,54.94
2022-10-05T10:18:50.784Z,54.17
2022-10-05T10:21:42.282Z,54.63
2022-10-05T10:24:50.145Z,54.56
2022-10-05T10:27:46.247Z,54.87
2022-10-05T10:30:36.362Z,54.56
2022-10-05T10:33:51.015Z,54.16
2022-10-05T10:37:12.218Z,53.63
2022-10-05T10:40:23.848Z,53.68
2022-10-05T10:42:54.092Z,53.91
2022-10-05T10:45:59.426Z,53.86
2022-10-05T10:48:29.373Z,53.88
2022-10-05T10:51:18.674Z,54.50
2022-10-05T10:54:16.307Z,53.62
2022-10-05T10:57:01.042Z,53.29
2022-10-05T10:59:46.615Z,53.89
2022-10-05T11:02:44.458Z,53.49
2022-10-05T11:06:01.940Z,54.63
2022-10-05T11:08:34.645Z,55.86
2022-10-05T11:11:20.023Z,56.85
2022-10-05T11:13:58.853Z,56.41
2022-10-05T11:16:52.855Z,56.54
2022-10-05T11:20:04.569Z,56.08
2022-10-05T11:22:59.487Z,55.97
2022-10-05T11:25:46.716Z,55.88
2022-10-05T11:28:55.401Z,55.01
2022-10-05T11:31:40.937Z,53.92
2022-10-05T11:34:35.678Z,53.45
2022-10-05T11:37:23.663Z,52.45
2022-10-05T11:40:09.618Z,52.80
2022-10-05T11:43:14.380Z,52.65
2022-10-05T11:46:18.728Z,53.38
2022-10-05T11:49:15.708Z,53.87
2022-10-05T11:52:09.014Z,53.14
2022-10-05T11:54:58.626Z,53.84
2022-10-05T11:57:33.624Z,54.37
2022-10-05T12:00:22.679Z,54.76
2022-10-05T12:03:23.432Z,55.12
2022-10-05T12:06:08.783Z,55.39
2022-10-05T12:08:52.450Z,59.18
2022-10-05T12:11:58.086Z,61.17
2022-10-05T12:14:31.127Z,62.81
2022-10-05T12:17:09.863Z,62.01
2022-10-05T12:19:44.391Z,62.73
2022-10-05T12:22:33.869Z,64.06
2022-10-05T12:25:32.001Z,65.15
2022-10-05T12:28:04.759Z,63.75
2022-10-05T12:30:52.625Z,64.76
2022-10-05T12:33:56.145Z,64.37
2022-10-05T12:37:03.642Z,64.42
2022-10-05T12:39:53.338Z,64.69
2022-10-05T12:42:49.909Z,64.09
2022-10-05T12:45:17.011Z,64.35
2022-10-05T12:47:58.795Z,64.26
2022-10-05T12:50:35.998Z,64.76
2022-10-05T12:53:41.654Z,64.09
2022-10-05T12:56:36.059Z,63.73
2022-10-05T12:59:38.252Z,63.27
2022-10-05T13:02:20.215Z,62.42
2022-10-05T13:05:14.459Z,62.96
2022-10-05T13:08:13.879Z,62.99
2022-10-05T13:11:14.203Z,62.96
2022-10-05T13:14:01.985Z,62.69
2022-10-05T13:16:49.143Z,62.15
2022-10-05T13:19:35.492Z,62.85
2022-10-05T13:22:21.277Z,62.56
2022-10-05T13:25:22.885Z,62.77
2022-10-05T13:27:58.496Z,62.74
2022-10-05T13:30:25.610Z,63.41
2022-10-05T13:32:58.540Z,62.93
2022-10-05T13:35:25.481Z,63.54
2022-10-05T13:38:18.917Z,63.34
2022-10-05T13:41:05.130Z,63.79
2022-10-05T13:43:53.629Z,64.54
2022-10-05T13:46:50.025Z,64.22
2022-10-05T13:49:21.430Z,64.97
2022-10-05T13:51:58.124Z,65.05
2022-10-05T13:54:42.951Z,64.93
2022-10-05T13:57:47.240Z,65.83
2022-10-05T14:00:18.803Z,65.68
2022-10-05T14:02:51.517Z,65.98
2022-10-05T14:05:25.472Z,65.52
2022-10-05T14:08:15.984Z,65.76
2022-10-05T14:10:46.153Z,66.17
2022-10-05T14:13:12.968Z,66.49
2022-10-05T14:15:42.293Z,66.13
2022-10-05T14:18:27.725Z,66.64
2022-10-05T14:21:14.543Z,66.45
2022-10-05T14:23:42.075Z,66.78
2022-10-05T14:26:33.700Z,66.60
2022-10-05T14:29:22.813Z,66.84
2022-10-05T14:31:55.333Z,66.89
2022-10-05T14:35:15.233Z,67.69
2022-10-05T14:37:58.043Z,67.78
2022-10-05T14:40:34.877Z,68.17
2022-10-05T14:43:21.938Z,68.02
2022-10-05T14:45:56.598Z,68.33
2022-10-05T14:48:25.947Z,68.26
2022-10-05T14:50:58.448Z,68.57
2022-10-05T14:53:40.896Z,67.98
2022-10-05T14:56:31.014Z,68.10
2022-10-05T14:59:22.760Z,68.49
2022-10-05T15:02:19.588Z,68.70
2022-10-05T15:05:00.928Z,69.31
2022-10-05T15:07:27.772Z,68.97
2022-10-05T15:10:14.346Z,68.88
2022-10-05T15:12:46.461Z,69.52
2022-10-05T15:15:42.741Z,69.36
2022-10-05T15:18:45.155Z,69.57
2022-10-05T15:21:44.071Z,69.42
2022-10-05T15:24:50.370Z,68.93
2022-10-05T15:27:58.900Z,68.91
2022-10-05T15:30:26.346Z,69.68
2022-10-05T15:33:30.528Z,69.61
2022-10-05T15:36:21.867Z,69.20
2022-10-05T15:39:05.824Z,69.18
2022-10-05T15:41:54.902Z,69.62
2022-10-05T15:44:33.790Z,69.51
2022-10-05T15:47:08.719Z,69.19
2022-10-05T15:49:59.843Z,69.55
2022-10-05T15:53:17.665Z,69.14
2022-10-05T15:56:00.165Z,69.68
2022-10-05T15:58:51.111Z,69.97
2022-10-05T16:01:32.016Z,69.33
2022-10-05T16:04:23.710Z,69.70
2022-10-05T16:07:02.155Z,69.07
2022-10-05T16:09:45.147Z,70.08
2022-10-05T16:12:47.450Z,69.24
2022-10-05T16:15:43.684Z,69.48
2022-10-05T16:18:25.906Z,69.34
2022-10-05T16:21:18.854Z,70.01
2022-10-05T16:24:00.851Z,69.66
2022-10-05T16:26:34.686Z,70.14
2022-10-05T16:29:19.466Z,70.22
2022-10-05T16:31:57.722Z,70.00
2022-10-05T16:34:34.044Z,70.77
2022-10-05T16:37:29.924Z,70.16
2022-10-05T16:40:15.458Z,69.91
2022-10-05T16:43:07.598Z,69.99
2022-10-05T16:46:10.354Z,70.55
2022-10-05T16:48:47.248Z,70.17
2022-10-05T16:51:31.228Z,70.68
2022-10-05T16:54:34.190Z,70.33
2022-10-05T16:57:13.416Z,70.30
2022-10-05T17:00:13.402Z,69.73
2022-10-05T17:02:48.763Z,69.76
2022-10-05T17:05:39.452Z,69.76
2022-10-05T17:08:31.264Z,69.08
2022-10-05T17:11:32.525Z,68.82
2022-10-05T17:14:21.947Z,68.71
2022-10-05T17:17:21.413Z,69.40
2022-10-05T17:20:00.514Z,69.32
2022-10-05T17:22:33.408Z,69.66
2022-10-05T17:25:15.371Z,69.68
2022-10-05T17:27:56.001Z,69.03
2022-10-05T17:30:58.191Z,69.01
2022-10-05T17:33:31.750Z,69.56
2022-10-05T17:36:01.870Z,69.71
2022-10-05T17:38:31.864Z,70.17
2022-10-05T17:41:10.054Z,69.68
2022-10-05T17:43:37.175Z,69.14
2022-10-05T17:46:07.058Z,69.14
2022-10-05T17:48:50.202Z,69.77
2022-10-05T17:51:37.618Z,69.52
2022-10-05T17:54:21.544Z,69.62
2022-10-05T17:56:51.219Z,69.26
2022-10-05T17:59:54.746Z,69.89
2022-10-05T18:02:36.851Z,69.04
2022-10-05T18:05:04.246Z,70.03
2022-10-05T18:07:36.228Z,70.21
2022-10-05T18:10:12.639Z,69.37
2022-10-05T18:12:48.199Z,69.75
2022-10-05T18:15:36.902Z,69.66
2022-10-05T18:18:33.266Z,69.50
2022-10-05T18:21:54.214Z,69.31
2022-10-05T18:24:41.085Z,69.30
2022-10-05T18:27:49.726Z,69.32
2022-10-05T18:30:46.077Z,69.16
2022-10-05T18:33:13.105Z,69.27
2022-10-05T18:35:52.774Z,69.00
2022-10-05T18:38:37.945Z,69.46
2022-10-05T18:41:14.141Z,69.59
2022-10-05T18:43:53.300Z,68.96
2022-10-05T18:46:45.727Z,69.05
2022-10-05T18:49:34.463Z,68.80
2022-10-05T18:52:40.734Z,69.10
2022-10-05T18:55:26.644Z,69.07
2022-10-05T18:58:13.356Z,68.59
2022-10-05T19:01:00.896Z,68.40
2022-10-05T19:04:02.434Z,68.41
2022-10-05T19:07:03.434Z,68.22
2022-10-05T19:10:07.757Z,68.10
2022-10-05T19:12:56.249Z,68.62
2022-10-05T19:16:07.222Z,68.20
2022-10-05T19:19:01.113Z,67.86
2022-10-05T19:21:52.261Z,67.69
2022-10-05T19:24:19.140Z,67.84
2022-10-05T19:27:06.992Z,67.84
2022-10-05T19:30:01.103Z,68.36
2022-10-05T19:32:46.559Z,68.13
2022-10-05T19:35:27.270Z,68.06
2022-10-05T19:38:02.444Z,67.79
2022-10-05T19:40:39.523Z,67.74
2022-10-05T19:43:24.016Z,67.84
2022-10-05T19:46:16.318Z,67.56
2022-10-05T19:48:55.821Z,67.75
2022-10-05T19:51:25.732Z,67.26
2022-10-05T19:53:53.355Z,68.08
2022-10-05T19:56:23.416Z,67.67
2022-10-05T19:58:51.770Z,68.25
2022-10-05T21:20:25.785Z,78.59
2022-10-05T21:22:52.688Z,77.37
2022-10-05T21:25:19.446Z,76.58
2022-10-05T21:27:46.348Z,75.94
2022-10-05T21:30:13.294Z,75.40
2022-10-05T21:32:44.229Z,74.65
2022-10-05T21:35:12.921Z,74.13
2022-10-05T21:37:39.732Z,73.31
2022-10-05T21:40:06.973Z,72.73
2022-10-05T21:42:33.968Z,71.96
2022-10-05T21:45:00.990Z,71.92
2022-10-05T21:47:27.793Z,71.27
2022-10-05T21:49:55.114Z,71.04
2022-10-05T21:52:22.221Z,70.98
2022-10-05T21:54:49.432Z,70.61
2022-10-05T21:57:16.394Z,70.54
2022-10-05T21:59:43.571Z,70.39
2022-10-05T22:02:10.352Z,69.96
2022-10-05T22:04:37.172Z,69.55
2022-10-05T22:07:14.183Z,69.67
2022-10-05T22:09:41.136Z,68.91
2022-10-05T22:12:07.942Z,69.75
2022-10-05T22:14:34.818Z,69.02
2022-10-05T22:17:01.968Z,69.06
2022-10-05T22:19:31.967Z,69.22
2022-10-05T22:21:58.776Z,68.48
2022-10-05T22:24:25.612Z,68.72
2022-10-05T22:26:52.447Z,67.87
2022-10-05T22:29:20.239Z,68.48
2022-10-05T22:31:47.801Z,68.21
2022-10-05T22:34:15.948Z,67.77
2022-10-05T22:36:42.789Z,68.09
2022-10-05T22:39:09.720Z,67.54
2022-10-05T22:41:36.488Z,67.88
2022-10-05T22:44:03.390Z,67.63
2022-10-05T22:46:30.497Z,67.76
2022-10-05T22:48:57.462Z,66.88
2022-10-05T22:51:24.348Z,67.03
2022-10-05T22:53:51.161Z,67.37
2022-10-05T22:56:17.992Z,67.21
2022-10-05T22:58:46.406Z,67.25
2022-10-05T23:01:16.437Z,67.61
2022-10-05T23:03:44.097Z,68.13
2022-10-05T23:06:13.032Z,68.25
2022-10-05T23:08:45.485Z,68.17
2022-10-05T23:11:18.167Z,68.86
2022-10-05T23:13:45.268Z,68.35
2022-10-05T23:16:19.575Z,68.35
2022-10-05T23:18:51.165Z,68.54
2022-10-05T23:21:19.853Z,68.93
2022-10-05T23:23:48.014Z,68.74
2022-10-05T23:26:16.414Z,68.86
2022-10-05T23:28:44.293Z,68.98
2022-10-05T23:31:11.185Z,69.11
2022-10-05T23:33:38.106Z,69.67
2022-10-05T23:36:12.278Z,69.12
2022-10-05T23:38:39.234Z,68.93
2022-10-05T23:41:06.629Z,68.94
2022-10-05T23:43:33.764Z,68.75
2022-10-05T23:46:01.285Z,68.67
2022-10-05T23:48:28.397Z,68.75
2022-10-05T23:50:55.686Z,68.88
2022-10-05T23:53:23.060Z,68.45
2022-10-05T23:55:51.624Z,68.52
2022-10-05T23:58:19.498Z,68.35
